Time;durP1;ratioP1;P1;durP2;ratioP2;P2;SDS_P1;SDS_P2;PMS_P1;PMS_P2;Temp;Humidity;BMP_temperature;BMP_pressure;BME280_temperature;BME280_humidity;BME280_pressure;Samples;Min_cycle;Max_cycle;Signal;HPM_P1;HPM_P2
2023/09/04 00:04:13;;;;;;;14.20;6.80;;;;;;;14.29;100.00;99896.11;272593;1269;22223;-84
2023/09/04 00:10:14;;;;;;;10.40;5.90;;;;;;;14.26;100.00;99902.77;273354;1270;22319;-86
2023/09/04 00:16:15;;;;;;;7.30;5.50;;;;;;;14.18;100.00;99905.02;273353;1269;22192;-84
2023/09/04 00:22:16;;;;;;;10.80;5.80;;;;;;;14.11;100.00;99912.49;273293;1274;22356;-84
2023/09/04 00:28:18;;;;;;;8.00;5.70;;;;;;;14.05;100.00;99911.79;273431;1269;22238;-84
2023/09/04 00:34:21;;;;;;;9.70;6.40;;;;;;;13.91;100.00;99907.63;273414;1271;23208;-84
2023/09/04 00:40:22;;;;;;;11.30;5.60;;;;;;;13.89;100.00;99912.46;273373;1270;22390;-85
2023/09/04 00:46:30;;;;;;;8.60;5.80;;;;;;;13.93;100.00;99923.13;273151;1270;22791;-85
2023/09/04 00:52:31;;;;;;;11.00;6.20;;;;;;;13.92;100.00;99934.60;271038;1269;22390;-85
2023/09/04 00:58:33;;;;;;;9.80;5.80;;;;;;;13.89;100.00;99941.56;271436;1269;24221;-85
2023/09/04 01:04:35;;;;;;;14.10;6.00;;;;;;;13.82;100.00;99942.88;270029;1270;22554;-86
2023/09/04 01:10:48;;;;;;;9.00;6.20;;;;;;;13.76;100.00;99938.71;270271;1268;23205;-84
2023/09/04 01:16:49;;;;;;;7.40;5.90;;;;;;;13.67;100.00;99947.48;272133;1269;22854;-84
2023/09/04 01:22:51;;;;;;;8.60;5.90;;;;;;;13.61;100.00;99944.64;270888;1269;22590;-84
2023/09/04 01:29:07;;;;;;;10.00;6.30;;;;;;;13.62;100.00;99949.08;269612;1269;22538;-84
2023/09/04 01:35:10;;;;;;;9.60;5.50;;;;;;;13.61;100.00;99955.26;269693;1263;24264;-85
2023/09/04 01:41:11;;;;;;;9.40;6.30;;;;;;;13.57;100.00;99956.70;269356;1270;22569;-84
2023/09/04 01:47:19;;;;;;;10.60;6.50;;;;;;;13.55;100.00;99967.04;269712;1270;22526;-85
2023/09/04 01:53:21;;;;;;;8.20;6.10;;;;;;;13.55;100.00;99964.90;270383;1271;22549;-85
2023/09/04 01:59:23;;;;;;;9.60;6.40;;;;;;;13.54;100.00;99967.58;272532;1272;22357;-85
2023/09/04 02:05:24;;;;;;;8.90;6.20;;;;;;;13.52;100.00;99978.47;271133;1270;23321;-85
2023/09/04 02:11:25;;;;;;;9.60;6.00;;;;;;;13.52;100.00;99979.88;273313;1270;22333;-85
2023/09/04 02:17:25;;;;;;;12.50;6.80;;;;;;;13.56;100.00;99983.39;273320;1270;22277;-85
2023/09/04 02:23:27;;;;;;;11.20;7.80;;;;;;;13.54;100.00;99984.00;273334;1270;22420;-85
2023/09/04 02:29:29;;;;;;;13.30;7.90;;;;;;;13.50;100.00;99981.97;273262;1270;22324;-86
2023/09/04 02:35:30;;;;;;;10.90;7.00;;;;;;;13.53;100.00;99976.04;272323;1270;22553;-84
2023/09/04 02:41:31;;;;;;;15.50;8.30;;;;;;;13.55;100.00;99978.52;270516;1270;22296;-84
2023/09/04 02:47:32;;;;;;;12.30;7.10;;;;;;;13.52;100.00;99978.25;272300;1270;22452;-84
2023/09/04 02:53:33;;;;;;;14.20;7.30;;;;;;;13.50;100.00;99987.94;273393;1270;22396;-84
2023/09/04 02:59:35;;;;;;;9.10;6.40;;;;;;;13.48;100.00;99985.48;273448;1269;22398;-84
2023/09/04 03:05:36;;;;;;;13.40;7.10;;;;;;;13.43;100.00;99985.79;272072;1270;22252;-84
2023/09/04 03:11:37;;;;;;;10.50;7.40;;;;;;;13.38;100.00;99984.30;272141;1260;23660;-84
2023/09/04 03:17:38;;;;;;;10.70;7.00;;;;;;;13.38;100.00;99988.70;273386;1270;22253;-84
2023/09/04 03:23:40;;;;;;;11.30;6.60;;;;;;;13.28;100.00;99993.89;273376;1267;22324;-84
2023/09/04 03:29:41;;;;;;;9.80;6.70;;;;;;;13.23;100.00;100000.24;273141;1270;22326;-85
2023/09/04 03:35:42;;;;;;;10.30;7.90;;;;;;;13.21;100.00;100004.84;273138;1263;22297;-84
2023/09/04 03:41:44;;;;;;;11.20;7.50;;;;;;;13.22;100.00;100004.61;271800;1264;22597;-83
2023/09/04 03:47:46;;;;;;;12.30;7.70;;;;;;;13.23;100.00;100007.80;271358;1270;22314;-84
2023/09/04 03:54:07;;;;;;;11.80;8.60;;;;;;;13.23;100.00;100017.13;270150;1270;23602;-85
2023/09/04 04:00:16;;;;;;;13.40;7.90;;;;;;;13.22;100.00;100023.56;273034;1269;22330;-84
2023/09/04 04:06:22;;;;;;;16.70;8.00;;;;;;;13.25;100.00;100016.30;273027;1270;23037;-84
2023/09/04 04:12:24;;;;;;;10.50;8.30;;;;;;;13.28;100.00;100026.18;273324;1269;22225;-84
2023/09/04 04:18:26;;;;;;;14.00;9.30;;;;;;;13.33;100.00;100033.26;273164;1270;22184;-84
2023/09/04 04:24:27;;;;;;;12.70;9.30;;;;;;;13.40;100.00;100047.84;273374;1269;22269;-84
2023/09/04 04:30:28;;;;;;;12.40;8.70;;;;;;;13.47;100.00;100048.64;273563;1270;23375;-84
2023/09/04 04:36:36;;;;;;;16.30;8.80;;;;;;;13.53;100.00;100060.54;273420;1269;22225;-84
2023/09/04 04:42:37;;;;;;;13.20;8.90;;;;;;;13.61;100.00;100069.94;273128;1270;22233;-84
2023/09/04 04:48:40;;;;;;;16.30;10.20;;;;;;;13.68;100.00;100079.48;273019;1264;22455;-85
2023/09/04 04:54:44;;;;;;;13.10;8.30;;;;;;;13.71;100.00;100084.02;273217;1268;23242;-84
2023/09/04 05:00:45;;;;;;;16.50;8.70;;;;;;;13.73;100.00;100086.63;273246;1269;22198;-84
2023/09/04 05:06:47;;;;;;;12.10;8.60;;;;;;;13.75;100.00;100093.52;273091;1270;22264;-84
2023/09/04 05:12:48;;;;;;;12.20;8.50;;;;;;;13.80;100.00;100111.67;273171;1262;23374;-84
2023/09/04 05:18:51;;;;;;;12.80;8.20;;;;;;;13.83;100.00;100119.19;273318;1270;22346;-84
2023/09/04 05:24:53;;;;;;;13.20;7.80;;;;;;;13.84;100.00;100119.85;273277;1270;23561;-84
2023/09/04 05:30:54;;;;;;;11.10;7.80;;;;;;;13.86;100.00;100125.86;272890;1270;22652;-84
2023/09/04 05:36:56;;;;;;;10.90;7.50;;;;;;;13.89;100.00;100121.73;272000;1270;23146;-85
2023/09/04 05:42:58;;;;;;;10.90;7.60;;;;;;;14.01;100.00;100121.05;272870;1270;22210;-84
2023/09/04 05:48:59;;;;;;;11.10;7.70;;;;;;;14.38;100.00;100129.08;273409;1269;22365;-84
2023/09/04 05:55:00;;;;;;;13.40;8.40;;;;;;;14.51;100.00;100141.70;273394;1270;22329;-83
2023/09/04 06:01:01;;;;;;;17.80;7.70;;;;;;;14.45;100.00;100138.24;273298;1270;23076;-83
2023/09/04 06:07:04;;;;;;;10.60;6.40;;;;;;;14.40;100.00;100130.45;273428;1269;22200;-83
2023/09/04 06:13:23;;;;;;;10.90;7.10;;;;;;;14.39;100.00;100132.16;273410;1269;22339;-85
2023/09/04 06:19:24;;;;;;;9.40;6.30;;;;;;;14.46;100.00;100129.83;273350;1269;23127;-84
2023/09/04 06:25:24;;;;;;;7.30;5.60;;;;;;;14.55;100.00;100129.63;273405;1270;22352;-83
2023/09/04 06:31:25;;;;;;;10.70;6.40;;;;;;;14.62;100.00;100127.35;273316;1270;22280;-83
2023/09/04 06:37:27;;;;;;;7.90;5.10;;;;;;;14.67;100.00;100132.17;273319;1270;22321;-85
2023/09/04 06:43:29;;;;;;;8.20;4.80;;;;;;;14.76;100.00;100130.22;272253;1267;22571;-84
2023/09/04 06:49:30;;;;;;;9.70;5.10;;;;;;;14.89;100.00;100128.71;270698;1270;22538;-84
2023/09/04 06:55:31;;;;;;;8.00;5.40;;;;;;;15.06;100.00;100134.91;271234;1270;22623;-83
2023/09/04 07:01:32;;;;;;;8.40;5.30;;;;;;;15.17;100.00;100136.61;270185;1268;22586;-84
2023/09/04 07:07:36;;;;;;;7.00;4.60;;;;;;;15.32;100.00;100141.02;269890;1268;22551;-84
2023/09/04 07:13:37;;;;;;;10.20;5.50;;;;;;;15.52;100.00;100141.80;270438;1269;22957;-84
2023/09/04 07:19:38;;;;;;;11.00;6.40;;;;;;;15.69;100.00;100141.32;269528;1267;22623;-84
2023/09/04 07:25:39;;;;;;;7.00;4.90;;;;;;;15.80;100.00;100144.17;272881;1269;22432;-84
2023/09/04 07:31:40;;;;;;;7.30;5.00;;;;;;;15.96;100.00;100158.73;273373;1270;22199;-85
2023/09/04 07:37:41;;;;;;;9.00;4.30;;;;;;;16.10;100.00;100172.96;273406;1270;22727;-86
2023/09/04 07:44:02;;;;;;;8.10;4.30;;;;;;;16.15;100.00;100177.02;273275;1268;22232;-84
2023/09/04 07:50:04;;;;;;;6.30;4.30;;;;;;;16.42;100.00;100180.30;273253;1270;22187;-85
2023/09/04 07:56:05;;;;;;;5.50;4.10;;;;;;;16.84;100.00;100183.24;273196;1270;22249;-84
2023/09/04 08:02:05;;;;;;;6.20;4.00;;;;;;;17.22;100.00;100184.58;272772;1269;22567;-85
2023/09/04 08:08:10;;;;;;;5.90;4.00;;;;;;;17.48;100.00;100185.15;273305;1269;22405;-87
2023/09/04 08:14:12;;;;;;;6.80;4.70;;;;;;;17.44;100.00;100197.07;273406;1266;22445;-86
2023/09/04 08:20:13;;;;;;;6.00;4.80;;;;;;;17.31;100.00;100201.38;273428;1269;22462;-85
2023/09/04 08:26:14;;;;;;;6.20;4.40;;;;;;;17.39;100.00;100189.61;273215;1270;22378;-85
2023/09/04 08:32:15;;;;;;;7.10;4.30;;;;;;;17.58;100.00;100187.70;273350;1269;23315;-85
2023/09/04 08:38:16;;;;;;;8.30;4.10;;;;;;;17.64;100.00;100182.98;273370;1268;22962;-85
2023/09/04 08:44:19;;;;;;;7.20;3.90;;;;;;;17.74;100.00;100185.92;273203;1270;22568;-85
2023/09/04 08:50:21;;;;;;;7.10;4.20;;;;;;;17.73;100.00;100195.25;269817;1269;22577;-85
2023/09/04 08:56:24;;;;;;;6.20;3.90;;;;;;;17.69;100.00;100196.84;270212;1269;22556;-84
2023/09/04 09:02:26;;;;;;;6.80;4.00;;;;;;;17.83;100.00;100200.58;270637;1267;22546;-85
2023/09/04 09:08:32;;;;;;;5.90;3.90;;;;;;;17.94;100.00;100202.00;272702;1270;22323;-86
2023/09/04 09:14:33;;;;;;;8.70;4.60;;;;;;;18.05;100.00;100196.29;273385;1269;22281;-85
2023/09/04 09:20:36;;;;;;;8.00;4.00;;;;;;;18.51;100.00;100197.05;273217;1270;22251;-86
2023/09/04 09:26:39;;;;;;;6.70;4.40;;;;;;;19.10;100.00;100196.89;273387;1254;22428;-86
2023/09/04 09:32:42;;;;;;;4.80;4.00;;;;;;;19.00;100.00;100196.30;273310;1270;22315;-85
2023/09/04 09:38:44;;;;;;;9.10;4.60;;;;;;;18.87;100.00;100193.65;273280;1264;22386;-85
2023/09/04 09:44:45;;;;;;;8.20;4.10;;;;;;;19.20;100.00;100189.86;273238;1270;22309;-85
2023/09/04 09:50:46;;;;;;;8.70;4.40;;;;;;;19.69;100.00;100191.28;273393;1270;22380;-86
2023/09/04 09:56:48;;;;;;;7.20;3.60;;;;;;;19.85;100.00;100193.08;273332;1269;22310;-86
2023/09/04 10:02:49;;;;;;;6.90;4.20;;;;;;;20.25;100.00;100196.02;272557;1269;22566;-85
2023/09/04 10:08:51;;;;;;;7.50;4.10;;;;;;;20.27;100.00;100192.20;272500;1269;22225;-86
2023/09/04 10:15:15;;;;;;;9.30;4.40;;;;;;;20.19;100.00;100189.48;272912;1270;22327;-85
2023/09/04 10:21:19;;;;;;;8.10;3.50;;;;;;;19.92;100.00;100186.20;272962;1262;22243;-86
2023/09/04 10:27:22;;;;;;;11.80;4.00;;;;;;;19.96;100.00;100171.71;273074;1269;22423;-84
2023/09/04 10:33:23;;;;;;;6.40;4.10;;;;;;;20.35;99.92;100162.17;272948;1260;22371;-85
2023/09/04 10:39:24;;;;;;;13.40;3.80;;;;;;;20.69;98.84;100158.80;273315;1268;22233;-85
2023/09/04 10:45:25;;;;;;;10.90;3.90;;;;;;;20.78;98.23;100160.11;273305;1268;22387;-86
2023/09/04 10:51:33;;;;;;;5.50;3.40;;;;;;;21.13;97.91;100159.52;273151;1268;23389;-87
2023/09/04 10:57:55;;;;;;;7.80;4.20;;;;;;;21.44;96.73;100154.64;273217;1270;22483;-86
2023/09/04 11:03:56;;;;;;;6.60;3.60;;;;;;;21.57;95.54;100144.66;272945;1262;22536;-85
2023/09/04 11:10:06;;;;;;;8.60;3.70;;;;;;;21.85;94.61;100137.88;271139;1268;22673;-85
2023/09/04 11:16:08;;;;;;;9.50;4.00;;;;;;;22.08;93.40;100134.54;272696;1269;22375;-86
2023/09/04 11:22:21;;;;;;;8.60;3.80;;;;;;;21.91;92.04;100133.63;273163;1264;22493;-83
2023/09/04 11:28:32;;;;;;;6.10;3.90;;;;;;;21.97;92.55;100130.20;273157;1268;374483;-85
2023/09/04 11:34:36;;;;;;;5.20;3.40;;;;;;;21.68;91.11;100141.24;273229;1268;22123;-84
2023/09/04 11:40:39;;;;;;;7.00;4.50;;;;;;;21.34;91.11;100142.23;273368;1272;21856;-84
2023/09/04 11:46:48;;;;;;;11.90;4.40;;;;;;;21.34;91.29;100133.71;273264;1269;22236;-83
2023/09/04 11:52:52;;;;;;;5.10;3.70;;;;;;;21.43;91.40;100128.80;273144;1266;22212;-85
2023/09/04 11:58:53;;;;;;;10.50;6.60;;;;;;;21.47;90.00;100137.98;273442;1269;22246;-86
2023/09/04 12:04:57;;;;;;;8.10;5.20;;;;;;;21.17;88.99;100139.20;273306;1269;22193;-86
2023/09/04 12:11:02;;;;;;;12.00;5.80;;;;;;;20.73;89.21;100139.51;273219;1260;22321;-85
2023/09/04 12:17:12;;;;;;;6.40;5.00;;;;;;;20.37;89.32;100143.00;273304;1269;22185;-85
2023/09/04 12:23:43;;;;;;;8.40;5.70;;;;;;;20.01;89.36;100132.05;273410;1268;22890;-86
2023/09/04 12:30:02;;;;;;;7.80;5.00;;;;;;;19.86;90.11;100123.03;273276;1264;22496;-86
2023/09/04 12:36:09;;;;;;;10.10;6.70;;;;;;;20.00;91.63;100118.77;273492;1265;22357;-86
2023/09/04 12:42:11;;;;;;;9.40;6.10;;;;;;;20.27;90.68;100113.14;273421;1269;24547;-85
2023/09/04 12:48:16;;;;;;;7.60;5.50;;;;;;;20.32;89.10;100112.55;273396;1268;22374;-85
2023/09/04 12:54:17;;;;;;;9.20;5.40;;;;;;;20.20;88.39;100112.83;273247;1268;23035;-85
2023/09/04 13:00:19;;;;;;;7.80;5.20;;;;;;;20.13;88.49;100109.62;273262;1269;23155;-85
2023/09/04 13:06:40;;;;;;;7.40;5.90;;;;;;;20.04;88.09;100105.33;273394;1269;22358;-85
2023/09/04 13:12:40;;;;;;;12.20;7.00;;;;;;;20.03;88.33;100097.08;273331;1269;22592;-86
2023/09/04 13:18:42;;;;;;;9.20;7.30;;;;;;;20.07;88.67;100089.42;273394;1269;22364;-86
2023/09/04 13:24:43;;;;;;;8.60;6.70;;;;;;;20.14;88.74;100080.31;273263;1268;22254;-85
2023/09/04 13:30:44;;;;;;;11.10;6.70;;;;;;;20.14;88.44;100078.40;273463;1268;22345;-83
2023/09/04 13:36:45;;;;;;;8.70;6.20;;;;;;;20.14;87.38;100074.27;273411;1268;22394;-83
2023/09/04 13:42:46;;;;;;;10.40;6.40;;;;;;;20.20;87.41;100071.44;273372;1269;22263;-84
2023/09/04 13:48:47;;;;;;;10.40;7.00;;;;;;;20.28;87.06;100064.77;273495;1268;22202;-86
2023/09/04 13:54:49;;;;;;;8.90;6.80;;;;;;;20.25;86.38;100063.45;273305;1268;22333;-83
2023/09/04 14:00:50;;;;;;;7.20;5.90;;;;;;;20.12;85.71;100064.77;273109;1268;22559;-85
2023/09/04 14:06:51;;;;;;;9.20;6.20;;;;;;;20.09;84.64;100059.55;272317;1268;23417;-84
2023/09/04 14:12:52;;;;;;;5.90;5.30;;;;;;;20.04;84.78;100050.77;273388;1269;22504;-84
2023/09/04 14:18:53;;;;;;;7.50;5.40;;;;;;;20.04;84.25;100047.44;273447;1269;22360;-84
2023/09/04 14:24:54;;;;;;;6.30;5.20;;;;;;;20.09;84.11;100041.19;272816;1268;22453;-84
2023/09/04 14:30:55;;;;;;;7.90;5.20;;;;;;;20.11;84.90;100039.02;273327;1266;22535;-86
2023/09/04 14:36:57;;;;;;;8.10;5.90;;;;;;;20.00;84.50;100044.54;273315;1268;22414;-84
2023/09/04 14:42:58;;;;;;;5.60;4.60;;;;;;;19.92;84.71;100053.12;273308;1269;22179;-84
2023/09/04 14:49:00;;;;;;;5.80;4.90;;;;;;;19.86;83.40;100053.34;273154;1267;22545;-85
2023/09/04 14:55:01;;;;;;;5.10;4.30;;;;;;;19.83;83.09;100051.47;272707;1262;22310;-84
2023/09/04 15:01:16;;;;;;;7.20;4.90;;;;;;;19.78;82.96;100050.17;273468;1268;22369;-84
2023/09/04 15:07:25;;;;;;;5.50;4.80;;;;;;;19.76;83.11;100055.73;271744;1268;23422;-84
2023/09/04 15:13:26;;;;;;;7.00;4.50;;;;;;;19.83;82.94;100057.41;271287;1268;22500;-84
2023/09/04 15:19:28;;;;;;;6.80;4.70;;;;;;;19.94;81.99;100057.55;272951;1268;22241;-84
2023/09/04 15:25:29;;;;;;;6.80;4.90;;;;;;;19.98;81.61;100056.80;273221;1268;22405;-84
2023/09/04 15:31:32;;;;;;;5.70;4.70;;;;;;;19.91;81.20;100051.31;273395;1269;22206;-84
2023/09/04 15:37:33;;;;;;;7.30;5.00;;;;;;;19.83;81.42;100049.80;273364;1268;22461;-84
2023/09/04 15:43:34;;;;;;;5.20;4.20;;;;;;;19.76;81.76;100053.84;273416;1268;22336;-84
2023/09/04 15:49:35;;;;;;;10.20;4.30;;;;;;;19.74;81.72;100050.60;273378;1268;22322;-85
2023/09/04 15:55:36;;;;;;;6.20;3.80;;;;;;;19.72;81.69;100050.92;273382;1269;22402;-85
2023/09/04 16:01:46;;;;;;;5.40;4.00;;;;;;;19.70;81.32;100050.79;271089;1268;22545;-85
2023/09/04 16:07:47;;;;;;;7.00;4.00;;;;;;;19.72;80.76;100053.55;273267;1269;22346;-86
2023/09/04 16:13:48;;;;;;;4.50;3.10;;;;;;;19.74;80.65;100055.02;273405;1268;22253;-85
2023/09/04 16:19:50;;;;;;;4.30;3.10;;;;;;;19.71;79.48;100067.38;272673;1269;22431;-86
2023/09/04 16:25:55;;;;;;;4.50;3.20;;;;;;;19.71;79.11;100070.86;273325;1268;22519;-86
2023/09/04 16:31:57;;;;;;;5.10;3.30;;;;;;;19.67;78.44;100074.15;273374;1269;22369;-85
2023/09/04 16:37:58;;;;;;;6.40;3.30;;;;;;;19.57;78.69;100076.70;273340;1264;22278;-85
2023/09/04 16:44:00;;;;;;;7.40;3.50;;;;;;;19.42;79.52;100077.29;272560;1269;22557;-85
2023/09/04 16:50:01;;;;;;;4.00;2.60;;;;;;;19.26;79.66;100081.35;271063;1268;22573;-85
2023/09/04 16:56:04;;;;;;;4.60;3.20;;;;;;;19.09;80.23;100083.59;263654;1269;10002143;-86
2023/09/04 17:02:05;;;;;;;4.60;3.20;;;;;;;18.95;80.51;100100.79;273255;1264;22352;-85
2023/09/04 17:08:07;;;;;;;3.50;2.40;;;;;;;18.73;80.58;100102.88;273137;1271;22468;-85
2023/09/04 17:14:08;;;;;;;5.50;3.00;;;;;;;18.58;80.66;100101.83;273113;1268;22506;-86
2023/09/04 17:20:10;;;;;;;3.40;2.30;;;;;;;18.42;80.78;100097.27;273232;1269;22826;-85
2023/09/04 17:26:12;;;;;;;5.10;3.00;;;;;;;18.24;81.53;100104.19;273207;1269;22345;-85
2023/09/04 17:32:13;;;;;;;7.40;3.60;;;;;;;18.04;81.95;100112.86;272920;1269;22995;-85
2023/09/04 17:38:14;;;;;;;5.00;3.10;;;;;;;17.78;82.38;100109.08;272780;1269;22536;-85
2023/09/04 17:44:15;;;;;;;6.60;3.30;;;;;;;17.46;82.89;100111.51;271315;1269;22579;-85
2023/09/04 17:50:16;;;;;;;6.20;3.20;;;;;;;17.11;83.71;100110.08;273169;1268;23242;-86
2023/09/04 17:56:19;;;;;;;9.20;4.20;;;;;;;16.85;84.86;100104.23;273224;1269;22444;-86
2023/09/04 18:02:20;;;;;;;9.80;4.00;;;;;;;16.66;85.94;100112.69;273118;1269;22339;-86
2023/09/04 18:08:24;;;;;;;6.50;4.00;;;;;;;16.46;86.55;100117.25;273230;1269;22329;-86
2023/09/04 18:14:25;;;;;;;4.50;3.50;;;;;;;16.24;87.48;100122.23;273239;1268;22324;-86
2023/09/04 18:20:26;;;;;;;8.00;4.50;;;;;;;16.06;88.29;100126.21;273165;1269;23666;-85
2023/09/04 18:26:42;;;;;;;8.60;4.70;;;;;;;15.89;89.14;100132.56;273253;1268;22516;-85
2023/09/04 18:32:43;;;;;;;15.50;4.50;;;;;;;15.69;89.95;100131.77;273202;1266;22352;-86
2023/09/04 18:38:44;;;;;;;6.60;4.20;;;;;;;15.56;91.55;100131.10;273241;1271;22465;-85
2023/09/04 18:44:45;;;;;;;6.00;4.00;;;;;;;15.43;92.24;100131.30;273102;1269;22240;-85
2023/09/04 18:50:50;;;;;;;7.80;4.70;;;;;;;15.29;92.68;100141.94;273053;1270;22309;-86
2023/09/04 18:56:53;;;;;;;9.60;5.30;;;;;;;15.19;93.62;100145.76;273221;1270;22211;-86
2023/09/04 19:02:54;;;;;;;11.50;5.60;;;;;;;15.01;93.97;100149.73;273248;1268;22253;-86
2023/09/04 19:08:55;;;;;;;8.40;5.80;;;;;;;14.86;94.72;100152.63;273134;1268;22327;-86
2023/09/04 19:14:57;;;;;;;7.90;5.20;;;;;;;14.76;95.42;100160.06;273056;1273;22371;-85
2023/09/04 19:20:58;;;;;;;8.00;4.50;;;;;;;14.68;96.23;100168.15;273316;1270;23548;-85
2023/09/04 19:27:02;;;;;;;12.90;4.90;;;;;;;14.59;97.16;100165.27;273194;1271;23177;-86
2023/09/04 19:33:04;;;;;;;5.70;4.60;;;;;;;14.49;97.77;100164.19;273224;1270;22476;-86
2023/09/04 19:39:05;;;;;;;7.30;4.80;;;;;;;14.39;98.02;100163.42;273212;1269;22196;-85
2023/09/04 19:45:07;;;;;;;9.40;5.20;;;;;;;14.23;98.42;100160.02;273301;1269;23419;-85
2023/09/04 19:51:08;;;;;;;8.70;5.10;;;;;;;14.12;99.00;100163.55;273169;1270;22372;-85
2023/09/04 19:57:11;;;;;;;9.30;5.60;;;;;;;13.95;99.25;100170.42;273246;1269;22341;-86
2023/09/04 20:03:13;;;;;;;9.30;6.40;;;;;;;13.78;99.36;100177.92;273297;1269;23102;-85
2023/09/04 20:09:15;;;;;;;13.30;6.80;;;;;;;13.67;99.85;100180.02;273236;1269;23417;-86
2023/09/04 20:15:16;;;;;;;9.90;6.30;;;;;;;13.61;100.00;100178.89;273309;1270;22217;-85
2023/09/04 20:21:17;;;;;;;13.00;6.20;;;;;;;13.57;100.00;100182.04;273232;1270;23256;-86
2023/09/04 20:27:39;;;;;;;9.00;6.10;;;;;;;13.51;100.00;100182.41;273249;1269;22205;-86
2023/09/04 20:33:40;;;;;;;9.10;6.70;;;;;;;13.44;100.00;100185.73;273231;1268;23989;-85
2023/09/04 20:39:41;;;;;;;12.60;6.40;;;;;;;13.33;100.00;100182.86;273252;1269;22335;-85
2023/09/04 20:45:58;;;;;;;10.50;6.20;;;;;;;13.21;100.00;100181.77;273284;1270;22341;-86
2023/09/04 20:51:59;;;;;;;11.40;6.20;;;;;;;13.18;100.00;100184.69;272532;1268;23813;-85
2023/09/04 20:58:01;;;;;;;8.30;6.10;;;;;;;13.15;100.00;100189.50;271771;1268;22665;-85
2023/09/04 21:04:02;;;;;;;9.40;6.00;;;;;;;13.04;100.00;100188.97;273303;1270;22278;-85
2023/09/04 23:22:57;;;;;;;11.70;6.90;;;;;;;11.55;100.00;100176.66;271199;1269;22227;-84
2023/09/04 23:28:58;;;;;;;13.20;8.10;;;;;;;11.45;100.00;100175.30;273264;1269;169262;-84
2023/09/04 23:35:16;;;;;;;11.60;6.50;;;;;;;11.39;100.00;100181.18;273367;1268;22363;-84
2023/09/04 23:47:41;;;;;;;12.30;6.80;;;;;;;11.35;100.00;100177.17;271597;1268;22574;-84
2023/09/04 23:53:42;;;;;;;9.20;7.10;;;;;;;11.34;100.00;100179.09;271120;1269;22787;-85
2023/09/04 23:59:43;;;;;;;9.60;7.40;;;;;;;11.30;100.00;100174.13;270376;1269;22621;-84
